OIBL

Details ICAO OIBL (BDH)
Name BANDAR LENGEH
Region Iran
Timezone Asia/Tehran (UTC+3.5)
Plans Departing 1
Arriving 2
Stats Elevation 67 ft / 20 m (AMSL)
Location 26.532269° 54.824801°
Runways 1
Magnetic Variation 2.339° E
Sunrise 2017-12-15 03:02:37 UTC / 2017-12-15 06:32:37 Local
Sunset 2017-12-15 13:31:44 UTC / 2017-12-15 17:01:44 Local
Advertisement - Login to hide

Runways

ID Width Length Bearing (true) Bearing (mag) Surface Threshold Offset Overrun Length
08 148 ft / 45 m 8,192 ft / 2,497 m 80.57° 78.23° Asphalt 0 ft / 0 m 469 ft / 143 m
26 148 ft / 45 m 8,192 ft / 2,497 m 260.58° 258.24° Asphalt 0 ft / 0 m 479 ft / 146 m

Map

Weather


0- 5 10 15 20 25 30 35+ Temperature / ° C

Clouds and Precipitation
Forecast for 2017-12-15 12:00 UTC. Updated 2 hours ago

Ground ~20,000 ft ~40,000 ft Winds

METAR

OIBL 150900Z 08012KT 8000 FEW030TCU SCT100 BKN200 23/11 Q1018

TAF

Not found

Frequencies

Tower 122.55 MHz INFO
Tower 121.70 MHz INFO
Warning: Do not use this data for real-world aviation or navigation. No guarantee of current accuracy is given.